Time;durP1;ratioP1;P1;durP2;ratioP2;P2;SDS_P1;SDS_P2;PMS_P1;PMS_P2;Temp;Humidity;BMP_temperature;BMP_pressure;BME280_temperature;BME280_humidity;BME280_pressure;Samples;Min_cycle;Max_cycle;Signal;HPM_P1;HPM_P2
2022/05/19 00:01:21;;;;;;;;;;;20.40;99.90;;;;;;4974735;28;19917;-83
2022/05/19 00:03:47;;;;;;;;;;;20.30;99.90;;;;;;4974812;28;19915;-83
2022/05/19 00:06:13;;;;;;;;;;;20.30;99.90;;;;;;4978238;28;19933;-83
2022/05/19 00:08:38;;;;;;;;;;;20.20;99.90;;;;;;4978755;28;19933;-83
2022/05/19 00:11:05;;;;;;;;;;;20.20;99.90;;;;;;4978426;28;19961;-83
2022/05/19 00:13:31;;;;;;;;;;;20.20;99.90;;;;;;4961181;28;20131;-83
2022/05/19 00:15:57;;;;;;;;;;;20.10;99.90;;;;;;4978496;28;20425;-83
2022/05/19 00:18:23;;;;;;;;;;;20.10;99.90;;;;;;4978562;28;19921;-83
2022/05/19 00:20:48;;;;;;;;;;;20.10;99.90;;;;;;4978486;28;19910;-83
2022/05/19 00:23:15;;;;;;;;;;;20.00;99.90;;;;;;4978753;28;20365;-84
2022/05/19 00:25:40;;;;;;;;;;;20.00;99.90;;;;;;4978190;28;19969;-83
2022/05/19 00:28:06;;;;;;;;;;;19.90;99.90;;;;;;4978174;28;20326;-83
2022/05/19 00:30:33;;;;;;;;;;;19.90;99.90;;;;;;4978183;28;19917;-83
2022/05/19 00:32:58;;;;;;;;;;;19.90;99.90;;;;;;4978451;28;19910;-83
2022/05/19 00:35:24;;;;;;;;;;;19.80;99.90;;;;;;4978168;28;20286;-83
2022/05/19 00:37:49;;;;;;;;;;;19.80;99.90;;;;;;4978295;28;20405;-84
2022/05/19 00:40:16;;;;;;;;;;;19.80;99.90;;;;;;4960651;28;19910;-84
2022/05/19 00:42:44;;;;;;;;;;;19.80;99.90;;;;;;4977920;28;19910;-83
2022/05/19 00:45:13;;;;;;;;;;;19.70;99.90;;;;;;4977692;28;19922;-83
2022/05/19 00:47:41;;;;;;;;;;;19.70;99.90;;;;;;4977948;28;19917;-83
2022/05/19 00:50:09;;;;;;;;;;;19.60;99.90;;;;;;4960510;28;19932;-83
2022/05/19 00:52:38;;;;;;;;;;;19.60;99.90;;;;;;4977907;28;19916;-83
2022/05/19 00:55:10;;;;;;;;;;;19.60;99.90;;;;;;4977911;28;19910;-83
2022/05/19 00:57:39;;;;;;;;;;;19.60;99.90;;;;;;4978011;28;20396;-83
2022/05/19 01:00:13;;;;;;;;;;;19.60;99.90;;;;;;4977796;28;19910;-83
2022/05/19 01:02:41;;;;;;;;;;;19.60;99.90;;;;;;4977759;28;19910;-83
2022/05/19 01:05:09;;;;;;;;;;;19.60;99.90;;;;;;4977600;28;19996;-83
2022/05/19 01:07:37;;;;;;;;;;;19.60;99.90;;;;;;4977681;28;19942;-84
2022/05/19 01:10:04;;;;;;;;;;;19.60;99.90;;;;;;4977443;28;19910;-84
2022/05/19 01:12:29;;;;;;;;;;;19.60;99.90;;;;;;4977677;28;19910;-83
2022/05/19 01:14:55;;;;;;;;;;;19.60;99.90;;;;;;4977477;28;20351;-83
2022/05/19 01:17:21;;;;;;;;;;;19.60;99.90;;;;;;4977045;28;19918;-83
2022/05/19 01:19:51;;;;;;;;;;;19.60;99.90;;;;;;4976992;28;19911;-83
2022/05/19 01:22:29;;;;;;;;;;;19.60;99.90;;;;;;4977397;28;20325;-83
2022/05/19 01:25:00;;;;;;;;;;;19.60;99.90;;;;;;4977289;28;19917;-83
2022/05/19 01:27:27;;;;;;;;;;;19.60;99.90;;;;;;4975973;28;19910;-84
2022/05/19 01:29:54;;;;;;;;;;;19.60;99.90;;;;;;4959901;28;19910;-83
2022/05/19 01:32:24;;;;;;;;;;;19.60;99.90;;;;;;4977261;28;19910;-83
2022/05/19 01:34:50;;;;;;;;;;;19.60;99.90;;;;;;4977139;28;19917;-83
2022/05/19 01:37:15;;;;;;;;;;;19.50;99.90;;;;;;4976859;28;19918;-83
2022/05/19 01:39:44;;;;;;;;;;;19.30;99.90;;;;;;4976839;28;19910;-83
2022/05/19 01:42:09;;;;;;;;;;;19.20;99.90;;;;;;4976945;28;19910;-83
2022/05/19 01:44:47;;;;;;;;;;;19.10;99.90;;;;;;4976783;28;20392;-83
2022/05/19 01:47:26;;;;;;;;;;;19.20;99.90;;;;;;4976953;28;19961;-83
2022/05/19 01:50:05;;;;;;;;;;;19.10;99.90;;;;;;4976846;28;20009;-83
2022/05/19 01:52:45;;;;;;;;;;;19.00;99.90;;;;;;4959258;28;20385;-84
2022/05/19 01:55:16;;;;;;;;;;;19.00;99.90;;;;;;4976596;28;20321;-83
2022/05/19 01:57:47;;;;;;;;;;;19.10;99.90;;;;;;4976812;28;20227;-83
2022/05/19 02:00:18;;;;;;;;;;;19.00;99.90;;;;;;4976598;28;19992;-83
2022/05/19 02:02:56;;;;;;;;;;;19.00;99.90;;;;;;4976665;28;20011;-83
2022/05/19 02:05:40;;;;;;;;;;;19.10;99.90;;;;;;4976577;28;19946;-83
2022/05/19 02:08:07;;;;;;;;;;;19.20;99.90;;;;;;4976493;28;19918;-83
2022/05/19 02:10:36;;;;;;;;;;;19.20;99.90;;;;;;4959298;28;19984;-83
2022/05/19 02:13:03;;;;;;;;;;;19.20;99.90;;;;;;4976170;28;20278;-83
2022/05/19 02:15:31;;;;;;;;;;;19.20;99.90;;;;;;4958742;28;19927;-84
2022/05/19 02:17:57;;;;;;;;;;;19.20;99.90;;;;;;4976202;28;20017;-83
2022/05/19 02:20:24;;;;;;;;;;;19.30;99.90;;;;;;4976286;28;20057;-83
2022/05/19 02:22:50;;;;;;;;;;;19.30;99.90;;;;;;4976188;28;19965;-83
2022/05/19 02:25:15;;;;;;;;;;;19.30;99.90;;;;;;4976297;28;19942;-84
2022/05/19 02:27:53;;;;;;;;;;;19.20;99.90;;;;;;4975534;28;19918;-83
2022/05/19 02:30:26;;;;;;;;;;;19.30;99.90;;;;;;4976273;28;19996;-83
2022/05/19 02:32:52;;;;;;;;;;;19.30;99.90;;;;;;4975714;28;20005;-83
2022/05/19 02:35:18;;;;;;;;;;;19.30;99.90;;;;;;4976119;28;19953;-83
2022/05/19 02:37:43;;;;;;;;;;;19.40;99.90;;;;;;4975882;28;19914;-83
2022/05/19 02:40:11;;;;;;;;;;;19.40;99.90;;;;;;4975941;28;19914;-83
2022/05/19 02:42:36;;;;;;;;;;;19.40;99.90;;;;;;4976474;28;20431;-83
2022/05/19 02:45:02;;;;;;;;;;;19.40;99.90;;;;;;4975599;28;19926;-83
2022/05/19 02:47:28;;;;;;;;;;;19.40;99.90;;;;;;4975889;28;19914;-83
2022/05/19 02:49:53;;;;;;;;;;;19.40;99.90;;;;;;4974295;28;19995;-83
2022/05/19 02:52:19;;;;;;;;;;;19.40;99.90;;;;;;4975655;28;19910;-83
2022/05/19 02:54:44;;;;;;;;;;;19.30;99.90;;;;;;4975773;28;19949;-83
2022/05/19 02:57:10;;;;;;;;;;;19.20;99.90;;;;;;4974219;28;20004;-83
2022/05/19 02:59:35;;;;;;;;;;;19.10;99.90;;;;;;4974336;28;19910;-83
2022/05/19 03:02:01;;;;;;;;;;;19.20;99.90;;;;;;4975503;28;19917;-83
2022/05/19 03:04:26;;;;;;;;;;;19.00;99.90;;;;;;4975519;28;19917;-83
2022/05/19 03:06:52;;;;;;;;;;;18.90;99.90;;;;;;4957928;28;19911;-83
2022/05/19 03:09:18;;;;;;;;;;;19.00;99.90;;;;;;4975343;28;19957;-83
2022/05/19 03:11:43;;;;;;;;;;;18.90;99.90;;;;;;4975293;28;19918;-83
2022/05/19 03:14:09;;;;;;;;;;;18.90;99.90;;;;;;4975303;28;20401;-83
2022/05/19 03:16:36;;;;;;;;;;;18.90;99.90;;;;;;4975284;28;20409;-83
2022/05/19 03:19:02;;;;;;;;;;;18.90;99.90;;;;;;4975318;28;19932;-83
2022/05/19 03:21:27;;;;;;;;;;;18.90;99.90;;;;;;4975441;28;20282;-83
2022/05/19 03:23:53;;;;;;;;;;;18.90;99.90;;;;;;4975119;28;20384;-83
2022/05/19 03:26:18;;;;;;;;;;;18.80;99.90;;;;;;4975115;28;19973;-83
2022/05/19 03:28:44;;;;;;;;;;;18.70;99.90;;;;;;4975143;28;19914;-83
2022/05/19 03:31:10;;;;;;;;;;;18.70;99.90;;;;;;4975193;28;20329;-83
2022/05/19 03:33:35;;;;;;;;;;;18.60;99.90;;;;;;4975073;28;19910;-83
2022/05/19 03:36:02;;;;;;;;;;;18.60;99.90;;;;;;4974900;28;20018;-83
2022/05/19 03:38:27;;;;;;;;;;;18.50;99.90;;;;;;4957729;28;19961;-83
2022/05/19 03:40:53;;;;;;;;;;;18.50;99.90;;;;;;4975077;28;19910;-83
2022/05/19 03:43:19;;;;;;;;;;;18.60;99.90;;;;;;4957387;28;19922;-83
2022/05/19 03:45:45;;;;;;;;;;;18.60;99.90;;;;;;4974726;28;19910;-83
2022/05/19 03:48:10;;;;;;;;;;;18.60;99.90;;;;;;4974824;28;20329;-83
2022/05/19 03:50:36;;;;;;;;;;;18.70;99.90;;;;;;4974935;28;19910;-83
2022/05/19 03:53:02;;;;;;;;;;;18.70;99.90;;;;;;4975069;28;19910;-83
2022/05/19 03:55:28;;;;;;;;;;;18.60;99.90;;;;;;4974776;28;19921;-83
2022/05/19 03:57:54;;;;;;;;;;;18.50;99.90;;;;;;4973526;28;19921;-84
2022/05/19 04:00:20;;;;;;;;;;;18.60;99.90;;;;;;4974958;28;20436;-83
2022/05/19 04:02:46;;;;;;;;;;;18.70;99.90;;;;;;4973358;28;19910;-83
2022/05/19 04:05:12;;;;;;;;;;;18.70;99.90;;;;;;4974716;28;20393;-83
2022/05/19 04:07:38;;;;;;;;;;;18.70;99.90;;;;;;4974470;28;20301;-83
2022/05/19 04:10:05;;;;;;;;;;;18.70;99.90;;;;;;4974622;28;19910;-82
2022/05/19 04:12:30;;;;;;;;;;;18.70;99.90;;;;;;4974717;28;19910;-83
2022/05/19 04:14:56;;;;;;;;;;;18.50;99.90;;;;;;4974847;28;19917;-83
2022/05/19 04:17:22;;;;;;;;;;;18.40;99.90;;;;;;4974779;28;20009;-83
2022/05/19 04:19:47;;;;;;;;;;;18.50;99.90;;;;;;4957164;28;20038;-83
2022/05/19 04:22:13;;;;;;;;;;;18.50;99.90;;;;;;4974365;28;19910;-83
2022/05/19 04:24:38;;;;;;;;;;;18.50;99.90;;;;;;4974406;28;19910;-83
2022/05/19 04:27:04;;;;;;;;;;;18.60;99.90;;;;;;4973130;28;19917;-83
2022/05/19 04:29:29;;;;;;;;;;;18.60;99.90;;;;;;4974540;28;20285;-83
2022/05/19 04:31:55;;;;;;;;;;;18.80;99.90;;;;;;4974484;28;19910;-83
2022/05/19 04:34:21;;;;;;;;;;;18.80;99.90;;;;;;4973214;28;19946;-83
2022/05/19 04:36:46;;;;;;;;;;;18.70;99.90;;;;;;4974498;28;19950;-83
2022/05/19 04:39:13;;;;;;;;;;;18.70;99.90;;;;;;4974419;28;19910;-84
2022/05/19 04:41:38;;;;;;;;;;;18.60;99.90;;;;;;4974283;28;19969;-83
2022/05/19 04:44:04;;;;;;;;;;;18.40;99.90;;;;;;4974259;28;19922;-83
2022/05/19 04:46:29;;;;;;;;;;;18.40;99.90;;;;;;4974376;28;19916;-83
2022/05/19 04:48:55;;;;;;;;;;;18.40;99.90;;;;;;4974253;28;20429;-83
2022/05/19 04:51:20;;;;;;;;;;;18.30;99.90;;;;;;4976337;28;19914;-83
2022/05/19 04:53:46;;;;;;;;;;;18.20;99.90;;;;;;4978020;28;19911;-83
2022/05/19 04:56:11;;;;;;;;;;;18.30;99.90;;;;;;4980115;28;19918;-83
2022/05/19 04:58:37;;;;;;;;;;;18.40;99.90;;;;;;4977642;28;20452;-83
2022/05/19 05:01:03;;;;;;;;;;;18.40;99.90;;;;;;4978956;28;20389;-85
2022/05/19 05:03:29;;;;;;;;;;;18.50;99.90;;;;;;4978868;28;19917;-84
2022/05/19 05:05:55;;;;;;;;;;;18.40;99.90;;;;;;4977795;28;19910;-84
2022/05/19 05:08:20;;;;;;;;;;;18.40;99.90;;;;;;4977813;28;19945;-84
2022/05/19 05:10:46;;;;;;;;;;;18.30;99.90;;;;;;4960195;28;20293;-84
2022/05/19 05:13:12;;;;;;;;;;;18.20;99.90;;;;;;4979322;28;20228;-83
2022/05/19 05:15:38;;;;;;;;;;;18.20;99.90;;;;;;4987607;28;19989;-83
2022/05/19 05:18:05;;;;;;;;;;;18.20;99.90;;;;;;4986703;28;19906;-89
2022/05/19 05:20:30;;;;;;;;;;;18.20;99.90;;;;;;4987252;28;19910;-88
2022/05/19 05:22:56;;;;;;;;;;;18.20;99.90;;;;;;4969612;28;19906;-87
2022/05/19 05:25:21;;;;;;;;;;;18.20;99.90;;;;;;4987406;28;19907;-87
2022/05/19 05:27:47;;;;;;;;;;;18.10;99.90;;;;;;4986646;28;19913;-87
2022/05/19 05:30:13;;;;;;;;;;;17.90;99.90;;;;;;4986816;28;20033;-87
2022/05/19 05:32:39;;;;;;;;;;;17.80;99.90;;;;;;4986924;28;20102;-88
2022/05/19 05:35:06;;;;;;;;;;;17.80;99.90;;;;;;4987256;28;19907;-88
2022/05/19 05:37:31;;;;;;;;;;;17.90;99.90;;;;;;4986855;28;20106;-88
2022/05/19 05:39:57;;;;;;;;;;;17.80;99.90;;;;;;4987562;28;19906;-88
2022/05/19 05:42:22;;;;;;;;;;;17.70;99.90;;;;;;4986996;28;19910;-87
2022/05/19 05:44:48;;;;;;;;;;;17.70;99.90;;;;;;4985565;28;19922;-91
2022/05/19 05:47:14;;;;;;;;;;;17.60;99.90;;;;;;4982407;28;19910;-87
2022/05/19 05:49:39;;;;;;;;;;;17.60;99.90;;;;;;4959496;28;19917;-87
2022/05/19 05:52:05;;;;;;;;;;;17.60;99.90;;;;;;4977020;28;19914;-87
2022/05/19 05:54:31;;;;;;;;;;;17.60;99.90;;;;;;4976758;28;19910;-87
2022/05/19 05:56:57;;;;;;;;;;;17.60;99.90;;;;;;4976623;28;19934;-87
2022/05/19 05:59:23;;;;;;;;;;;17.50;99.90;;;;;;4977006;28;19914;-87
2022/05/19 06:01:48;;;;;;;;;;;17.50;99.90;;;;;;4975959;28;19968;-88
2022/05/19 06:04:14;;;;;;;;;;;17.50;99.90;;;;;;4958993;28;19910;-87
2022/05/19 06:06:40;;;;;;;;;;;17.50;99.90;;;;;;4976699;28;19910;-87
2022/05/19 06:09:05;;;;;;;;;;;17.60;99.90;;;;;;4976570;28;19917;-86
2022/05/19 06:11:31;;;;;;;;;;;17.70;99.90;;;;;;4976581;28;19914;-85
2022/05/19 06:13:57;;;;;;;;;;;17.80;99.90;;;;;;4976327;28;19914;-85
2022/05/19 06:16:22;;;;;;;;;;;17.90;99.90;;;;;;4976511;28;19925;-85
2022/05/19 06:18:48;;;;;;;;;;;18.00;99.90;;;;;;4976140;28;19914;-84
2022/05/19 06:21:13;;;;;;;;;;;18.00;99.90;;;;;;4976659;28;19914;-83
2022/05/19 06:23:39;;;;;;;;;;;18.00;99.90;;;;;;4976336;28;19918;-84
2022/05/19 06:26:05;;;;;;;;;;;18.00;99.90;;;;;;4958667;28;19988;-83
2022/05/19 06:28:31;;;;;;;;;;;18.20;99.90;;;;;;4976252;28;19910;-83
2022/05/19 06:30:56;;;;;;;;;;;18.30;99.90;;;;;;4976059;28;20005;-83
2022/05/19 06:33:22;;;;;;;;;;;18.40;99.90;;;;;;4975993;28;19957;-83
2022/05/19 06:35:48;;;;;;;;;;;18.40;99.90;;;;;;4976090;28;19914;-83
2022/05/19 06:38:14;;;;;;;;;;;18.40;99.90;;;;;;4976058;28;19914;-83
2022/05/19 06:40:41;;;;;;;;;;;18.40;99.90;;;;;;4958604;28;19910;-83
2022/05/19 06:43:10;;;;;;;;;;;18.50;99.90;;;;;;4975765;28;19992;-83
2022/05/19 06:45:36;;;;;;;;;;;18.40;99.90;;;;;;4975814;28;19918;-82
2022/05/19 06:48:02;;;;;;;;;;;18.40;99.90;;;;;;4958433;28;19973;-82
2022/05/19 06:50:27;;;;;;;;;;;18.50;99.90;;;;;;4975715;28;19917;-82
2022/05/19 06:52:55;;;;;;;;;;;18.60;99.90;;;;;;4975703;28;19950;-82
2022/05/19 06:55:22;;;;;;;;;;;18.50;99.90;;;;;;4975753;28;19910;-82
2022/05/19 06:57:47;;;;;;;;;;;18.50;99.90;;;;;;4975366;28;19914;-83
2022/05/19 07:00:16;;;;;;;;;;;18.50;99.90;;;;;;4975701;28;19918;-82
2022/05/19 07:02:43;;;;;;;;;;;18.60;99.90;;;;;;4975692;28;20322;-82
2022/05/19 07:05:09;;;;;;;;;;;18.60;99.90;;;;;;4975528;28;19917;-82
2022/05/19 07:07:35;;;;;;;;;;;18.60;99.90;;;;;;4975867;28;19910;-82
2022/05/19 07:10:01;;;;;;;;;;;18.70;99.90;;;;;;4975458;28;19910;-82
2022/05/19 07:12:26;;;;;;;;;;;18.80;99.90;;;;;;4975244;28;19916;-82
2022/05/19 07:14:52;;;;;;;;;;;18.90;99.90;;;;;;4975052;28;19910;-82
2022/05/19 07:17:18;;;;;;;;;;;18.90;99.90;;;;;;4975260;28;20400;-82
2022/05/19 07:22:28;;;;;;;;;;;18.90;99.90;;;;;;4975647;28;19922;-82
2022/05/19 07:24:54;;;;;;;;;;;18.90;99.90;;;;;;4975458;28;20002;-82
2022/05/19 07:27:20;;;;;;;;;;;19.00;99.90;;;;;;4975332;28;19910;-82
2022/05/19 07:29:46;;;;;;;;;;;19.00;99.90;;;;;;4974015;28;19910;-82
2022/05/19 07:32:11;;;;;;;;;;;19.20;99.90;;;;;;4975153;28;19917;-82
2022/05/19 07:34:39;;;;;;;;;;;19.20;99.90;;;;;;4975083;28;20328;-82
2022/05/19 07:37:05;;;;;;;;;;;19.20;99.90;;;;;;4974723;28;19925;-82
2022/05/19 07:39:30;;;;;;;;;;;19.20;99.90;;;;;;4974916;28;20060;-81
2022/05/19 07:41:56;;;;;;;;;;;19.40;99.90;;;;;;4974958;28;19985;-82
2022/05/19 07:44:23;;;;;;;;;;;19.50;99.90;;;;;;4974820;28;20358;-82
2022/05/19 07:46:49;;;;;;;;;;;19.50;99.90;;;;;;4973617;28;20013;-82
2022/05/19 07:49:15;;;;;;;;;;;19.60;99.90;;;;;;4975045;28;19960;-82
2022/05/19 07:51:40;;;;;;;;;;;19.70;99.90;;;;;;4975051;28;20374;-82
2022/05/19 07:54:07;;;;;;;;;;;19.70;99.90;;;;;;4974839;28;19910;-82
2022/05/19 07:56:33;;;;;;;;;;;19.80;99.90;;;;;;4974654;28;19946;-82
2022/05/19 07:59:00;;;;;;;;;;;20.00;99.90;;;;;;4975046;28;20335;-82
2022/05/19 08:01:26;;;;;;;;;;;20.10;99.90;;;;;;4974719;28;19914;-82
2022/05/19 08:03:51;;;;;;;;;;;19.90;99.90;;;;;;4974761;28;19973;-82
2022/05/19 08:06:17;;;;;;;;;;;20.00;99.90;;;;;;4974823;28;19910;-82
2022/05/19 08:08:43;;;;;;;;;;;20.00;99.90;;;;;;4974718;28;20329;-82
2022/05/19 08:11:09;;;;;;;;;;;19.90;99.90;;;;;;4974732;28;19938;-83
2022/05/19 08:16:19;;;;;;;;;;;20.10;99.90;;;;;;4974513;28;19922;-82
2022/05/19 08:18:45;;;;;;;;;;;20.00;99.90;;;;;;4973245;28;19910;-82
2022/05/19 08:21:11;;;;;;;;;;;20.10;99.90;;;;;;4957187;28;20289;-82
2022/05/19 08:23:41;;;;;;;;;;;20.10;99.90;;;;;;4974698;28;19945;-82
2022/05/19 08:26:08;;;;;;;;;;;20.10;99.90;;;;;;4976244;28;19914;-82
2022/05/19 08:28:35;;;;;;;;;;;20.20;99.90;;;;;;4978594;28;19917;-82
2022/05/19 08:31:02;;;;;;;;;;;20.30;99.90;;;;;;4978265;28;19910;-83
2022/05/19 08:33:28;;;;;;;;;;;20.30;99.90;;;;;;4978884;28;19910;-82
2022/05/19 08:35:54;;;;;;;;;;;20.30;99.90;;;;;;4978106;28;19924;-83
2022/05/19 08:38:21;;;;;;;;;;;20.50;99.90;;;;;;4976854;28;19989;-82
2022/05/19 08:40:59;;;;;;;;;;;20.70;99.90;;;;;;4978003;28;19964;-82
2022/05/19 08:43:29;;;;;;;;;;;20.80;99.90;;;;;;4977898;28;19925;-83
2022/05/19 08:45:57;;;;;;;;;;;20.80;99.90;;;;;;4978064;28;19914;-82
2022/05/19 08:48:24;;;;;;;;;;;20.80;99.90;;;;;;4978177;28;19917;-82
2022/05/19 08:50:56;;;;;;;;;;;20.90;99.90;;;;;;4978076;28;19911;-83
2022/05/19 08:53:24;;;;;;;;;;;20.90;99.90;;;;;;4977897;28;19910;-82
2022/05/19 08:55:54;;;;;;;;;;;20.90;99.90;;;;;;4977801;28;19953;-82
2022/05/19 08:58:20;;;;;;;;;;;21.10;99.90;;;;;;4977784;28;19910;-82
2022/05/19 09:00:50;;;;;;;;;;;21.30;99.90;;;;;;4977643;28;19998;-83
2022/05/19 09:03:22;;;;;;;;;;;21.50;99.90;;;;;;4978130;28;19970;-83
2022/05/19 09:06:04;;;;;;;;;;;21.50;99.90;;;;;;4977790;28;19916;-83
2022/05/19 09:08:45;;;;;;;;;;;21.60;99.90;;;;;;4977978;28;19910;-83
2022/05/19 09:11:15;;;;;;;;;;;21.80;99.90;;;;;;4977859;28;19997;-82
2022/05/19 09:14:00;;;;;;;;;;;21.80;99.90;;;;;;4977913;28;19910;-83
2022/05/19 09:16:27;;;;;;;;;;;21.80;99.90;;;;;;4977277;28;19918;-83
2022/05/19 09:19:02;;;;;;;;;;;21.90;99.90;;;;;;4977431;28;19917;-83
2022/05/19 09:21:28;;;;;;;;;;;22.00;99.90;;;;;;4977278;28;19910;-83
2022/05/19 09:23:53;;;;;;;;;;;22.10;99.90;;;;;;4977458;28;19964;-83
2022/05/19 09:26:37;;;;;;;;;;;22.00;99.90;;;;;;4977291;28;19911;-83
2022/05/19 09:29:08;;;;;;;;;;;21.90;99.90;;;;;;4977313;28;20378;-83
2022/05/19 09:31:34;;;;;;;;;;;22.10;99.90;;;;;;4977475;28;19917;-83
2022/05/19 09:34:00;;;;;;;;;;;22.20;99.90;;;;;;4977337;28;19911;-83
2022/05/19 09:36:25;;;;;;;;;;;22.30;99.90;;;;;;4977070;28;20018;-82
2022/05/19 09:38:56;;;;;;;;;;;22.20;99.90;;;;;;4977180;28;19956;-82
2022/05/19 09:41:24;;;;;;;;;;;22.20;99.90;;;;;;4976913;28;19910;-82
2022/05/19 09:43:52;;;;;;;;;;;22.20;99.90;;;;;;4976698;28;20008;-82
2022/05/19 09:46:18;;;;;;;;;;;22.20;99.90;;;;;;4977259;28;19929;-83
2022/05/19 09:48:45;;;;;;;;;;;22.40;99.90;;;;;;4976976;28;19910;-82
2022/05/19 09:51:14;;;;;;;;;;;22.50;99.90;;;;;;4976966;28;19910;-82
2022/05/19 09:53:53;;;;;;;;;;;22.40;99.90;;;;;;4976894;28;20378;-82
2022/05/19 09:56:20;;;;;;;;;;;22.50;99.90;;;;;;4976855;28;19922;-83
2022/05/19 09:58:48;;;;;;;;;;;22.60;99.90;;;;;;4977073;28;19917;-83
2022/05/19 10:01:19;;;;;;;;;;;22.70;99.90;;;;;;4976679;28;20318;-83
2022/05/19 10:03:56;;;;;;;;;;;22.90;99.90;;;;;;4977101;28;19910;-83
2022/05/19 10:06:32;;;;;;;;;;;23.00;99.90;;;;;;4976538;28;19914;-83
2022/05/19 10:08:58;;;;;;;;;;;22.90;99.90;;;;;;4976675;28;20336;-83
2022/05/19 10:11:30;;;;;;;;;;;23.00;99.90;;;;;;4959252;28;19916;-83
2022/05/19 10:14:06;;;;;;;;;;;23.10;99.90;;;;;;4976473;28;19917;-83
2022/05/19 10:16:32;;;;;;;;;;;23.30;99.90;;;;;;4976398;28;19953;-82
2022/05/19 10:19:06;;;;;;;;;;;23.30;99.90;;;;;;4976369;28;20002;-82
2022/05/19 10:21:35;;;;;;;;;;;23.20;99.90;;;;;;4974929;28;20000;-82
2022/05/19 10:24:03;;;;;;;;;;;23.30;99.90;;;;;;4976311;28;19911;-82
2022/05/19 10:26:35;;;;;;;;;;;23.20;99.90;;;;;;4976361;28;19917;-82
2022/05/19 10:32:09;;;;;;;;;;;23.20;99.90;;;;;;4976109;28;20321;-82
2022/05/19 10:34:52;;;;;;;;;;;23.30;99.90;;;;;;4976237;28;19950;-83
2022/05/19 10:37:21;;;;;;;;;;;23.40;99.90;;;;;;4975823;28;19918;-82
2022/05/19 10:40:05;;;;;;;;;;;23.50;99.90;;;;;;4975910;28;20341;-83
2022/05/19 10:42:30;;;;;;;;;;;23.40;99.90;;;;;;4975848;28;19910;-83
2022/05/19 10:45:02;;;;;;;;;;;23.20;99.90;;;;;;4975651;28;19929;-83
2022/05/19 10:47:30;;;;;;;;;;;23.40;99.90;;;;;;4975963;28;19960;-83
2022/05/19 10:50:02;;;;;;;;;;;23.70;99.90;;;;;;4975317;28;20378;-83
2022/05/19 10:52:50;;;;;;;;;;;24.00;99.90;;;;;;4975787;28;19964;-83
2022/05/19 10:55:20;;;;;;;;;;;24.30;99.90;;;;;;4975782;28;20325;-83
2022/05/19 10:58:12;;;;;;;;;;;24.40;99.90;;;;;;4975573;28;19918;-83
2022/05/19 11:00:44;;;;;;;;;;;24.50;99.90;;;;;;4975512;28;20370;-82
2022/05/19 11:03:37;;;;;;;;;;;24.40;99.90;;;;;;4975647;28;20013;-82
2022/05/19 11:06:03;;;;;;;;;;;24.30;99.90;;;;;;4975753;28;19910;-83
2022/05/19 11:08:37;;;;;;;;;;;24.30;99.90;;;;;;4975797;28;19910;-84
2022/05/19 11:11:21;;;;;;;;;;;24.30;99.90;;;;;;4975568;28;19993;-84
2022/05/19 11:14:05;;;;;;;;;;;24.00;99.90;;;;;;4975441;28;19911;-83
2022/05/19 11:16:43;;;;;;;;;;;24.00;99.90;;;;;;4975277;28;20406;-83
2022/05/19 11:19:18;;;;;;;;;;;24.40;99.90;;;;;;4975157;28;19910;-83
2022/05/19 11:21:55;;;;;;;;;;;24.80;99.90;;;;;;4975027;28;20449;-83
2022/05/19 11:24:33;;;;;;;;;;;25.00;99.90;;;;;;4957835;28;19964;-83
2022/05/19 11:26:59;;;;;;;;;;;25.00;99.90;;;;;;4975166;28;19921;-83
2022/05/19 11:29:24;;;;;;;;;;;24.90;99.90;;;;;;4975156;28;19996;-83
2022/05/19 11:32:01;;;;;;;;;;;24.80;99.90;;;;;;4975321;28;19914;-83
2022/05/19 11:34:26;;;;;;;;;;;25.00;99.90;;;;;;4975240;28;19916;-83
2022/05/19 11:36:55;;;;;;;;;;;25.10;99.90;;;;;;4974830;28;19918;-83
2022/05/19 11:39:27;;;;;;;;;;;24.80;99.90;;;;;;4974931;28;19910;-83
2022/05/19 11:41:54;;;;;;;;;;;24.80;99.90;;;;;;4975044;28;19964;-83
2022/05/19 11:44:23;;;;;;;;;;;24.80;99.90;;;;;;4974823;28;19922;-83
2022/05/19 11:46:53;;;;;;;;;;;24.80;99.90;;;;;;4975047;28;19969;-83
2022/05/19 11:55:19;;;;;;;;;;;25.40;99.90;;;;;;4974795;28;19917;-83
2022/05/19 11:57:47;;;;;;;;;;;25.30;99.90;;;;;;4974973;28;19918;-83
2022/05/19 12:00:19;;;;;;;;;;;25.70;99.90;;;;;;4975078;28;19911;-83
2022/05/19 12:02:54;;;;;;;;;;;25.70;99.90;;;;;;4978865;28;19914;-83
2022/05/19 12:05:38;;;;;;;;;;;25.80;99.90;;;;;;4978985;28;20274;-83
2022/05/19 12:08:23;;;;;;;;;;;26.00;99.90;;;;;;4978929;28;20393;-84
2022/05/19 12:11:09;;;;;;;;;;;26.20;99.90;;;;;;4978797;28;19930;-83
2022/05/19 12:13:35;;;;;;;;;;;25.90;99.90;;;;;;4978181;28;19910;-84
2022/05/19 12:16:12;;;;;;;;;;;26.10;99.90;;;;;;4978812;28;20322;-83
2022/05/19 12:18:57;;;;;;;;;;;26.10;99.90;;;;;;4961033;28;20289;-83
2022/05/19 12:21:31;;;;;;;;;;;26.30;99.90;;;;;;4971165;28;19910;-83
2022/05/19 12:23:57;;;;;;;;;;;26.40;99.90;;;;;;4978591;28;19916;-83
2022/05/19 12:26:28;;;;;;;;;;;26.50;99.90;;;;;;4978648;28;19910;-83
2022/05/19 12:29:04;;;;;;;;;;;26.20;99.90;;;;;;4961069;28;19911;-83
2022/05/19 12:34:16;;;;;;;;;;;25.80;99.90;;;;;;4978603;28;19916;-83
2022/05/19 12:37:05;;;;;;;;;;;25.60;99.90;;;;;;4978142;28;20012;-83
2022/05/19 12:39:41;;;;;;;;;;;25.70;99.90;;;;;;4972677;28;20420;-83
2022/05/19 12:42:25;;;;;;;;;;;25.60;99.90;;;;;;4976849;28;19910;-83
2022/05/19 12:44:51;;;;;;;;;;;25.60;99.90;;;;;;4977904;28;20389;-83
2022/05/19 12:47:25;;;;;;;;;;;25.70;99.90;;;;;;4960755;28;20286;-83
2022/05/19 12:50:08;;;;;;;;;;;25.70;99.90;;;;;;4960763;28;19910;-83
2022/05/19 12:52:45;;;;;;;;;;;25.80;99.90;;;;;;4977949;28;19911;-83
2022/05/19 12:55:26;;;;;;;;;;;25.90;99.90;;;;;;4977966;28;19910;-83
2022/05/19 12:57:55;;;;;;;;;;;25.90;99.90;;;;;;4977653;28;19922;-83
2022/05/19 13:00:21;;;;;;;;;;;25.90;99.90;;;;;;4977874;28;19925;-83
2022/05/19 13:02:50;;;;;;;;;;;25.80;99.90;;;;;;4976398;28;19910;-83
2022/05/19 13:05:29;;;;;;;;;;;25.90;99.90;;;;;;4977912;28;19910;-83
2022/05/19 13:08:14;;;;;;;;;;;26.20;99.90;;;;;;4977847;28;19931;-82
2022/05/19 13:10:43;;;;;;;;;;;26.60;99.90;;;;;;4977726;28;19914;-83
2022/05/19 13:13:25;;;;;;;;;;;26.80;99.90;;;;;;4977030;28;20017;-83
2022/05/19 13:15:56;;;;;;;;;;;27.00;99.90;;;;;;4977509;28;20267;-83
2022/05/19 13:18:31;;;;;;;;;;;27.30;99.90;;;;;;4977368;28;19910;-83
2022/05/19 13:21:12;;;;;;;;;;;27.60;99.90;;;;;;4977509;28;19914;-83
2022/05/19 13:23:40;;;;;;;;;;;27.80;99.90;;;;;;4977300;28;19914;-83
2022/05/19 13:26:24;;;;;;;;;;;28.20;99.90;;;;;;4977437;28;19916;-83
2022/05/19 13:31:50;;;;;;;;;;;29.00;98.70;;;;;;4977376;28;19993;-83
2022/05/19 13:34:17;;;;;;;;;;;29.00;98.40;;;;;;4977666;28;20385;-82
2022/05/19 13:36:50;;;;;;;;;;;29.70;98.40;;;;;;4977077;28;20017;-83
2022/05/19 13:39:17;;;;;;;;;;;30.50;97.10;;;;;;4977017;28;19914;-83
2022/05/19 13:41:53;;;;;;;;;;;30.80;96.50;;;;;;4977054;28;19910;-83
2022/05/19 13:44:38;;;;;;;;;;;31.80;95.60;;;;;;4975531;28;20080;-83
2022/05/19 13:47:09;;;;;;;;;;;32.40;95.00;;;;;;4977090;28;20004;-83
2022/05/19 13:49:35;;;;;;;;;;;33.00;94.30;;;;;;4977231;28;20285;-83
2022/05/19 13:52:06;;;;;;;;;;;34.00;93.50;;;;;;4976992;28;19910;-83
2022/05/19 13:54:38;;;;;;;;;;;34.00;93.10;;;;;;4976977;28;19910;-84
2022/05/19 13:57:06;;;;;;;;;;;35.40;92.00;;;;;;4976816;28;19925;-83
2022/05/19 13:59:32;;;;;;;;;;;36.20;91.10;;;;;;4976898;28;19910;-83
2022/05/19 14:02:14;;;;;;;;;;;37.10;90.10;;;;;;4976604;28;19973;-83
2022/05/19 14:04:41;;;;;;;;;;;37.30;88.20;;;;;;4976695;28;20024;-83
2022/05/19 14:07:08;;;;;;;;;;;38.50;86.80;;;;;;4976759;28;19959;-83
2022/05/19 14:09:56;;;;;;;;;;;38.60;85.50;;;;;;4976684;28;19981;-84
2022/05/19 14:12:25;;;;;;;;;;;38.30;85.20;;;;;;4968726;28;19910;-83
2022/05/19 14:14:57;;;;;;;;;;;38.70;84.90;;;;;;4976528;28;19917;-84
2022/05/19 14:17:24;;;;;;;;;;;39.00;83.50;;;;;;4976396;28;19925;-83
2022/05/19 14:19:50;;;;;;;;;;;39.60;82.10;;;;;;4976421;28;19956;-84
2022/05/19 14:22:16;;;;;;;;;;;39.20;81.60;;;;;;4976223;28;19979;-84
2022/05/19 14:24:44;;;;;;;;;;;39.50;80.60;;;;;;4975375;28;19915;-83
2022/05/19 14:27:10;;;;;;;;;;;39.90;79.00;;;;;;4976124;28;20326;-83
2022/05/19 14:29:41;;;;;;;;;;;39.40;80.20;;;;;;4958815;28;19910;-83
2022/05/19 14:32:15;;;;;;;;;;;39.70;79.30;;;;;;4976284;28;19910;-84
2022/05/19 14:34:41;;;;;;;;;;;39.10;78.70;;;;;;4974952;28;20313;-83
2022/05/19 14:37:12;;;;;;;;;;;39.60;79.70;;;;;;4976081;28;19925;-84
2022/05/19 14:43:04;;;;;;;;;;;40.40;78.30;;;;;;4976186;28;19933;-84
2022/05/19 14:43:06;;;;;;;;;;;40.00;78.70;;;;;;4975643;28;19911;-84
2022/05/19 14:45:34;;;;;;;;;;;41.30;77.20;;;;;;4975921;28;19926;-84
2022/05/19 14:47:59;;;;;;;;;;;41.60;77.10;;;;;;4975952;28;19950;-84